sensor_id;sensor_type;location;lat;lon;timestamp;temperature;humidity
46752;DHT22;32497;48.936;9.270;2023-04-24T00:03:42;10.80;82.50
46752;DHT22;32497;48.936;9.270;2023-04-24T00:08:43;10.80;82.60
46752;DHT22;32497;48.936;9.270;2023-04-24T00:13:44;10.90;81.90
46752;DHT22;32497;48.936;9.270;2023-04-24T00:18:47;11.00;81.60
46752;DHT22;32497;48.936;9.270;2023-04-24T00:23:48;11.10;81.00
46752;DHT22;32497;48.936;9.270;2023-04-24T00:28:49;11.20;80.60
46752;DHT22;32497;48.936;9.270;2023-04-24T00:33:52;11.20;80.50
46752;DHT22;32497;48.936;9.270;2023-04-24T00:38:53;11.20;80.70
46752;DHT22;32497;48.936;9.270;2023-04-24T00:43:54;11.20;80.90
46752;DHT22;32497;48.936;9.270;2023-04-24T00:48:57;11.20;80.50
46752;DHT22;32497;48.936;9.270;2023-04-24T00:54:00;11.20;80.20
46752;DHT22;32497;48.936;9.270;2023-04-24T00:59:01;11.30;80.00
46752;DHT22;32497;48.936;9.270;2023-04-24T01:04:04;11.20;80.10
46752;DHT22;32497;48.936;9.270;2023-04-24T01:09:05;11.20;79.90
46752;DHT22;32497;48.936;9.270;2023-04-24T01:14:07;11.20;79.30
46752;DHT22;32497;48.936;9.270;2023-04-24T01:19:10;11.30;78.90
46752;DHT22;32497;48.936;9.270;2023-04-24T01:24:13;11.40;78.00
46752;DHT22;32497;48.936;9.270;2023-04-24T01:29:14;11.40;77.90
46752;DHT22;32497;48.936;9.270;2023-04-24T01:34:17;11.40;77.90
46752;DHT22;32497;48.936;9.270;2023-04-24T01:39:20;11.40;78.20
46752;DHT22;32497;48.936;9.270;2023-04-24T01:44:21;11.30;78.20
46752;DHT22;32497;48.936;9.270;2023-04-24T01:49:23;11.20;78.40
46752;DHT22;32497;48.936;9.270;2023-04-24T01:54:25;11.10;78.50
46752;DHT22;32497;48.936;9.270;2023-04-24T01:59:28;11.10;78.90
46752;DHT22;32497;48.936;9.270;2023-04-24T02:04:29;11.00;79.30
46752;DHT22;32497;48.936;9.270;2023-04-24T02:09:31;10.90;79.20
46752;DHT22;32497;48.936;9.270;2023-04-24T02:14:32;10.90;79.60
46752;DHT22;32497;48.936;9.270;2023-04-24T02:19:34;10.80;79.70
46752;DHT22;32497;48.936;9.270;2023-04-24T02:24:36;10.80;79.90
46752;DHT22;32497;48.936;9.270;2023-04-24T02:29:37;11.00;79.30
46752;DHT22;32497;48.936;9.270;2023-04-24T02:34:38;11.10;78.60
46752;DHT22;32497;48.936;9.270;2023-04-24T02:39:41;11.20;79.00
46752;DHT22;32497;48.936;9.270;2023-04-24T02:44:42;11.20;78.80
46752;DHT22;32497;48.936;9.270;2023-04-24T02:49:43;11.20;79.50
46752;DHT22;32497;48.936;9.270;2023-04-24T02:54:46;11.20;79.90
46752;DHT22;32497;48.936;9.270;2023-04-24T02:59:48;11.10;80.80
46752;DHT22;32497;48.936;9.270;2023-04-24T03:04:49;10.90;82.30
46752;DHT22;32497;48.936;9.270;2023-04-24T03:09:51;10.70;84.30
46752;DHT22;32497;48.936;9.270;2023-04-24T03:14:52;10.60;84.90
46752;DHT22;32497;48.936;9.270;2023-04-24T03:19:54;10.40;85.30
46752;DHT22;32497;48.936;9.270;2023-04-24T03:24:56;10.40;85.00
46752;DHT22;32497;48.936;9.270;2023-04-24T03:29:57;10.30;85.40
46752;DHT22;32497;48.936;9.270;2023-04-24T03:35:07;10.30;85.40
46752;DHT22;32497;48.936;9.270;2023-04-24T03:40:10;10.40;85.30
46752;DHT22;32497;48.936;9.270;2023-04-24T03:45:13;10.40;85.30
46752;DHT22;32497;48.936;9.270;2023-04-24T03:50:17;10.30;85.50
46752;DHT22;32497;48.936;9.270;2023-04-24T03:55:20;10.30;85.50
46752;DHT22;32497;48.936;9.270;2023-04-24T04:00:23;10.20;85.60
46752;DHT22;32497;48.936;9.270;2023-04-24T04:05:36;10.20;85.80
46752;DHT22;32497;48.936;9.270;2023-04-24T04:10:39;10.20;85.60
46752;DHT22;32497;48.936;9.270;2023-04-24T04:15:40;10.30;85.30
46752;DHT22;32497;48.936;9.270;2023-04-24T04:20:41;10.40;85.30
46752;DHT22;32497;48.936;9.270;2023-04-24T04:25:45;10.40;87.10
46752;DHT22;32497;48.936;9.270;2023-04-24T04:30:46;10.10;89.40
46752;DHT22;32497;48.936;9.270;2023-04-24T04:35:48;9.70;90.00
46752;DHT22;32497;48.936;9.270;2023-04-24T04:40:51;9.50;91.20
46752;DHT22;32497;48.936;9.270;2023-04-24T04:45:54;9.40;91.60
46752;DHT22;32497;48.936;9.270;2023-04-24T04:51:30;9.40;91.80
46752;DHT22;32497;48.936;9.270;2023-04-24T04:56:32;9.40;91.90
46752;DHT22;32497;48.936;9.270;2023-04-24T05:01:36;9.40;91.90
46752;DHT22;32497;48.936;9.270;2023-04-24T05:06:37;9.40;91.80
46752;DHT22;32497;48.936;9.270;2023-04-24T05:11:41;9.40;92.10
46752;DHT22;32497;48.936;9.270;2023-04-24T05:16:42;9.40;92.10
46752;DHT22;32497;48.936;9.270;2023-04-24T05:21:45;9.40;92.20
46752;DHT22;32497;48.936;9.270;2023-04-24T05:26:48;9.40;92.10
46752;DHT22;32497;48.936;9.270;2023-04-24T05:31:52;9.50;92.20
46752;DHT22;32497;48.936;9.270;2023-04-24T05:36:53;9.70;92.40
46752;DHT22;32497;48.936;9.270;2023-04-24T05:41:56;9.70;91.60
46752;DHT22;32497;48.936;9.270;2023-04-24T05:46:57;9.70;90.80
46752;DHT22;32497;48.936;9.270;2023-04-24T05:51:58;9.70;91.40
46752;DHT22;32497;48.936;9.270;2023-04-24T05:57:01;9.70;90.20
46752;DHT22;32497;48.936;9.270;2023-04-24T06:02:12;9.60;90.10
46752;DHT22;32497;48.936;9.270;2023-04-24T06:07:13;9.50;90.60
46752;DHT22;32497;48.936;9.270;2023-04-24T06:12:19;9.70;91.30
46752;DHT22;32497;48.936;9.270;2023-04-24T06:17:40;10.10;90.50
46752;DHT22;32497;48.936;9.270;2023-04-24T06:22:41;9.90;88.70
46752;DHT22;32497;48.936;9.270;2023-04-24T06:27:45;9.80;89.10
46752;DHT22;32497;48.936;9.270;2023-04-24T06:32:46;9.80;89.00
46752;DHT22;32497;48.936;9.270;2023-04-24T06:37:50;10.40;88.80
46752;DHT22;32497;48.936;9.270;2023-04-24T06:42:53;11.20;86.70
46752;DHT22;32497;48.936;9.270;2023-04-24T06:47:54;11.40;81.90
46752;DHT22;32497;48.936;9.270;2023-04-24T06:52:55;11.10;81.80
46752;DHT22;32497;48.936;9.270;2023-04-24T06:57:57;10.90;82.80
46752;DHT22;32497;48.936;9.270;2023-04-24T07:02:58;11.20;83.90
46752;DHT22;32497;48.936;9.270;2023-04-24T07:07:59;11.80;80.10
46752;DHT22;32497;48.936;9.270;2023-04-24T07:13:02;12.20;78.50
46752;DHT22;32497;48.936;9.270;2023-04-24T07:18:03;12.20;78.00
46752;DHT22;32497;48.936;9.270;2023-04-24T07:23:04;12.40;77.10
46752;DHT22;32497;48.936;9.270;2023-04-24T07:28:06;13.00;73.30
46752;DHT22;32497;48.936;9.270;2023-04-24T07:33:08;12.70;72.60
46752;DHT22;32497;48.936;9.270;2023-04-24T07:38:09;12.90;73.90
46752;DHT22;32497;48.936;9.270;2023-04-24T07:43:11;13.10;70.70
46752;DHT22;32497;48.936;9.270;2023-04-24T07:48:12;13.10;70.10
46752;DHT22;32497;48.936;9.270;2023-04-24T07:53:13;12.70;67.60
46752;DHT22;32497;48.936;9.270;2023-04-24T07:58:16;12.20;67.90
46752;DHT22;32497;48.936;9.270;2023-04-24T08:03:17;12.40;67.80
46752;DHT22;32497;48.936;9.270;2023-04-24T08:08:20;12.40;66.50
46752;DHT22;32497;48.936;9.270;2023-04-24T08:13:23;13.00;65.00
46752;DHT22;32497;48.936;9.270;2023-04-24T08:18:24;13.60;64.20
46752;DHT22;32497;48.936;9.270;2023-04-24T08:23:25;13.70;63.10
46752;DHT22;32497;48.936;9.270;2023-04-24T08:28:28;13.40;61.90
46752;DHT22;32497;48.936;9.270;2023-04-24T08:33:29;13.50;62.40
46752;DHT22;32497;48.936;9.270;2023-04-24T08:38:31;13.70;59.50
46752;DHT22;32497;48.936;9.270;2023-04-24T08:43:34;13.40;59.30
46752;DHT22;32497;48.936;9.270;2023-04-24T08:48:36;13.20;61.20
46752;DHT22;32497;48.936;9.270;2023-04-24T08:53:38;13.50;59.50
46752;DHT22;32497;48.936;9.270;2023-04-24T08:58:40;13.90;58.30
46752;DHT22;32497;48.936;9.270;2023-04-24T09:03:42;13.50;58.20
46752;DHT22;32497;48.936;9.270;2023-04-24T09:08:45;13.50;57.80
46752;DHT22;32497;48.936;9.270;2023-04-24T09:13:48;13.60;56.40
46752;DHT22;32497;48.936;9.270;2023-04-24T09:18:50;13.10;59.00
46752;DHT22;32497;48.936;9.270;2023-04-24T09:24:00;13.20;60.00
46752;DHT22;32497;48.936;9.270;2023-04-24T09:29:04;13.40;58.30
46752;DHT22;32497;48.936;9.270;2023-04-24T09:34:05;13.00;61.70
46752;DHT22;32497;48.936;9.270;2023-04-24T09:39:07;12.80;61.40
46752;DHT22;32497;48.936;9.270;2023-04-24T09:44:13;13.70;61.60
46752;DHT22;32497;48.936;9.270;2023-04-24T09:49:15;15.70;54.80
46752;DHT22;32497;48.936;9.270;2023-04-24T09:54:18;14.90;51.30
46752;DHT22;32497;48.936;9.270;2023-04-24T09:59:21;14.40;51.50
46752;DHT22;32497;48.936;9.270;2023-04-24T10:04:24;13.90;53.30
46752;DHT22;32497;48.936;9.270;2023-04-24T10:09:26;14.10;54.20
46752;DHT22;32497;48.936;9.270;2023-04-24T10:14:29;16.30;50.20
46752;DHT22;32497;48.936;9.270;2023-04-24T10:19:31;16.40;45.90
46752;DHT22;32497;48.936;9.270;2023-04-24T10:24:33;14.50;51.70
46752;DHT22;32497;48.936;9.270;2023-04-24T10:29:36;14.20;54.90
46752;DHT22;32497;48.936;9.270;2023-04-24T10:34:38;14.10;54.90
46752;DHT22;32497;48.936;9.270;2023-04-24T10:39:39;13.40;55.50
46752;DHT22;32497;48.936;9.270;2023-04-24T10:44:42;13.90;53.50
46752;DHT22;32497;48.936;9.270;2023-04-24T10:49:43;13.90;53.50
46752;DHT22;32497;48.936;9.270;2023-04-24T10:54:45;13.20;54.30
46752;DHT22;32497;48.936;9.270;2023-04-24T10:59:49;13.20;56.30
46752;DHT22;32497;48.936;9.270;2023-04-24T11:04:51;13.70;55.20
46752;DHT22;32497;48.936;9.270;2023-04-24T11:09:58;13.90;55.20
46752;DHT22;32497;48.936;9.270;2023-04-24T11:15:02;15.30;52.10
46752;DHT22;32497;48.936;9.270;2023-04-24T11:20:04;16.60;48.00
46752;DHT22;32497;48.936;9.270;2023-04-24T11:25:07;15.60;48.50
46752;DHT22;32497;48.936;9.270;2023-04-24T11:30:11;14.60;51.70
46752;DHT22;32497;48.936;9.270;2023-04-24T11:35:15;15.10;50.60
46752;DHT22;32497;48.936;9.270;2023-04-24T11:40:18;15.10;48.00
46752;DHT22;32497;48.936;9.270;2023-04-24T11:45:22;14.80;50.90
46752;DHT22;32497;48.936;9.270;2023-04-24T11:50:24;14.40;51.40
46752;DHT22;32497;48.936;9.270;2023-04-24T11:55:27;14.50;52.00
46752;DHT22;32497;48.936;9.270;2023-04-24T12:00:32;14.20;51.80
46752;DHT22;32497;48.936;9.270;2023-04-24T12:05:33;14.40;52.50
46752;DHT22;32497;48.936;9.270;2023-04-24T12:10:34;14.20;50.20
46752;DHT22;32497;48.936;9.270;2023-04-24T12:15:40;14.10;53.10
46752;DHT22;32497;48.936;9.270;2023-04-24T12:20:41;13.60;52.00
46752;DHT22;32497;48.936;9.270;2023-04-24T12:25:42;13.50;53.90
46752;DHT22;32497;48.936;9.270;2023-04-24T12:30:48;14.20;53.20
46752;DHT22;32497;48.936;9.270;2023-04-24T12:35:51;14.70;52.60
46752;DHT22;32497;48.936;9.270;2023-04-24T12:41:02;14.60;54.00
46752;DHT22;32497;48.936;9.270;2023-04-24T12:46:05;13.70;56.10
46752;DHT22;32497;48.936;9.270;2023-04-24T12:51:06;12.70;58.00
46752;DHT22;32497;48.936;9.270;2023-04-24T12:56:07;12.70;58.70
46752;DHT22;32497;48.936;9.270;2023-04-24T13:01:09;12.80;59.30
46752;DHT22;32497;48.936;9.270;2023-04-24T13:06:11;13.50;58.90
46752;DHT22;32497;48.936;9.270;2023-04-24T13:11:12;13.50;60.90
46752;DHT22;32497;48.936;9.270;2023-04-24T13:16:14;13.80;60.20
46752;DHT22;32497;48.936;9.270;2023-04-24T13:21:16;14.20;58.50
46752;DHT22;32497;48.936;9.270;2023-04-24T13:26:18;13.70;60.00
46752;DHT22;32497;48.936;9.270;2023-04-24T13:31:20;13.40;61.60
46752;DHT22;32497;48.936;9.270;2023-04-24T13:36:21;15.20;54.80
46752;DHT22;32497;48.936;9.270;2023-04-24T13:41:22;17.80;47.10
46752;DHT22;32497;48.936;9.270;2023-04-24T13:46:25;17.20;46.50
46752;DHT22;32497;48.936;9.270;2023-04-24T13:51:26;15.20;50.40
46752;DHT22;32497;48.936;9.270;2023-04-24T13:56:27;14.60;53.10
46752;DHT22;32497;48.936;9.270;2023-04-24T14:01:30;14.90;55.40
46752;DHT22;32497;48.936;9.270;2023-04-24T14:06:31;19.10;45.40
46752;DHT22;32497;48.936;9.270;2023-04-24T14:11:33;19.60;40.70
46752;DHT22;32497;48.936;9.270;2023-04-24T14:16:36;18.60;41.40
46752;DHT22;32497;48.936;9.270;2023-04-24T14:21:37;18.20;43.10
46752;DHT22;32497;48.936;9.270;2023-04-24T14:26:38;18.20;41.30
46752;DHT22;32497;48.936;9.270;2023-04-24T14:31:41;17.20;45.10
46752;DHT22;32497;48.936;9.270;2023-04-24T14:36:43;17.70;42.70
46752;DHT22;32497;48.936;9.270;2023-04-24T14:41:44;16.60;47.10
46752;DHT22;32497;48.936;9.270;2023-04-24T14:46:48;18.40;43.80
46752;DHT22;32497;48.936;9.270;2023-04-24T14:51:49;18.90;41.00
46752;DHT22;32497;48.936;9.270;2023-04-24T14:56:50;18.90;40.80
46752;DHT22;32497;48.936;9.270;2023-04-24T15:01:53;17.90;43.00
46752;DHT22;32497;48.936;9.270;2023-04-24T15:06:54;17.80;43.60
46752;DHT22;32497;48.936;9.270;2023-04-24T15:11:56;16.90;44.90
46752;DHT22;32497;48.936;9.270;2023-04-24T15:16:58;15.90;46.60
46752;DHT22;32497;48.936;9.270;2023-04-24T15:21:59;15.50;48.70
46752;DHT22;32497;48.936;9.270;2023-04-24T15:27:00;15.00;47.90
46752;DHT22;32497;48.936;9.270;2023-04-24T15:32:06;13.70;53.20
46752;DHT22;32497;48.936;9.270;2023-04-24T15:37:07;14.00;52.30
46752;DHT22;32497;48.936;9.270;2023-04-24T15:42:08;13.90;51.00
46752;DHT22;32497;48.936;9.270;2023-04-24T15:47:11;13.60;54.20
46752;DHT22;32497;48.936;9.270;2023-04-24T15:52:12;15.50;48.70
46752;DHT22;32497;48.936;9.270;2023-04-24T15:57:13;15.90;47.60
46752;DHT22;32497;48.936;9.270;2023-04-24T16:02:16;15.90;45.20
46752;DHT22;32497;48.936;9.270;2023-04-24T16:07:17;15.20;47.80
46752;DHT22;32497;48.936;9.270;2023-04-24T16:12:18;16.30;45.40
46752;DHT22;32497;48.936;9.270;2023-04-24T16:17:21;16.70;44.60
46752;DHT22;32497;48.936;9.270;2023-04-24T16:22:22;16.50;46.00
46752;DHT22;32497;48.936;9.270;2023-04-24T16:27:23;16.00;46.60
46752;DHT22;32497;48.936;9.270;2023-04-24T16:32:26;15.60;47.20
46752;DHT22;32497;48.936;9.270;2023-04-24T16:37:28;15.00;48.50
46752;DHT22;32497;48.936;9.270;2023-04-24T16:42:29;14.50;50.70
46752;DHT22;32497;48.936;9.270;2023-04-24T16:47:32;13.80;52.70
46752;DHT22;32497;48.936;9.270;2023-04-24T16:52:33;13.30;53.90
46752;DHT22;32497;48.936;9.270;2023-04-24T16:57:35;13.10;56.80
46752;DHT22;32497;48.936;9.270;2023-04-24T17:02:37;13.00;55.90
46752;DHT22;32497;48.936;9.270;2023-04-24T17:07:39;12.80;56.20
46752;DHT22;32497;48.936;9.270;2023-04-24T17:12:40;12.60;55.80
46752;DHT22;32497;48.936;9.270;2023-04-24T17:17:43;12.80;56.50
46752;DHT22;32497;48.936;9.270;2023-04-24T17:22:44;12.70;54.90
46752;DHT22;32497;48.936;9.270;2023-04-24T17:27:45;12.90;56.40
46752;DHT22;32497;48.936;9.270;2023-04-24T17:32:47;13.10;55.80
46752;DHT22;32497;48.936;9.270;2023-04-24T17:37:48;13.10;55.50
46752;DHT22;32497;48.936;9.270;2023-04-24T17:42:49;12.80;56.10
46752;DHT22;32497;48.936;9.270;2023-04-24T17:47:52;12.70;56.80
46752;DHT22;32497;48.936;9.270;2023-04-24T17:52:53;12.60;57.20
46752;DHT22;32497;48.936;9.270;2023-04-24T17:57:54;12.60;56.80
46752;DHT22;32497;48.936;9.270;2023-04-24T18:02:57;12.30;56.40
46752;DHT22;32497;48.936;9.270;2023-04-24T18:07:59;12.20;57.20
46752;DHT22;32497;48.936;9.270;2023-04-24T18:13:00;12.00;58.70
46752;DHT22;32497;48.936;9.270;2023-04-24T18:18:05;11.90;58.70
46752;DHT22;32497;48.936;9.270;2023-04-24T18:23:06;11.80;60.10
46752;DHT22;32497;48.936;9.270;2023-04-24T18:28:08;11.90;60.00
46752;DHT22;32497;48.936;9.270;2023-04-24T18:33:10;11.80;60.20
46752;DHT22;32497;48.936;9.270;2023-04-24T18:38:11;11.70;61.30
46752;DHT22;32497;48.936;9.270;2023-04-24T18:43:12;11.70;62.50
46752;DHT22;32497;48.936;9.270;2023-04-24T18:48:17;11.70;62.90
46752;DHT22;32497;48.936;9.270;2023-04-24T18:53:18;11.60;62.70
46752;DHT22;32497;48.936;9.270;2023-04-24T18:58:19;11.60;63.20
46752;DHT22;32497;48.936;9.270;2023-04-24T19:03:22;11.60;63.10
46752;DHT22;32497;48.936;9.270;2023-04-24T19:08:23;11.50;62.80
46752;DHT22;32497;48.936;9.270;2023-04-24T19:13:24;11.40;64.50
46752;DHT22;32497;48.936;9.270;2023-04-24T19:18:26;11.40;65.30
46752;DHT22;32497;48.936;9.270;2023-04-24T19:23:28;11.50;65.50
46752;DHT22;32497;48.936;9.270;2023-04-24T19:28:29;11.30;67.10
46752;DHT22;32497;48.936;9.270;2023-04-24T19:33:32;11.20;67.70
46752;DHT22;32497;48.936;9.270;2023-04-24T19:38:33;11.20;69.50
46752;DHT22;32497;48.936;9.270;2023-04-24T19:43:34;11.10;69.70
46752;DHT22;32497;48.936;9.270;2023-04-24T19:48:37;11.00;70.10
46752;DHT22;32497;48.936;9.270;2023-04-24T19:53:38;11.00;70.20
46752;DHT22;32497;48.936;9.270;2023-04-24T19:58:39;10.90;69.80
46752;DHT22;32497;48.936;9.270;2023-04-24T20:03:42;10.90;70.50
46752;DHT22;32497;48.936;9.270;2023-04-24T20:08:43;10.80;70.40
46752;DHT22;32497;48.936;9.270;2023-04-24T20:13:44;10.60;69.70
46752;DHT22;32497;48.936;9.270;2023-04-24T20:18:47;10.20;70.30
46752;DHT22;32497;48.936;9.270;2023-04-24T20:23:48;10.10;72.00
46752;DHT22;32497;48.936;9.270;2023-04-24T20:28:49;9.70;73.00
46752;DHT22;32497;48.936;9.270;2023-04-24T20:33:51;9.50;73.90
46752;DHT22;32497;48.936;9.270;2023-04-24T20:38:53;9.30;74.60
46752;DHT22;32497;48.936;9.270;2023-04-24T20:43:54;9.20;74.10
46752;DHT22;32497;48.936;9.270;2023-04-24T20:48:56;9.40;74.00
46752;DHT22;32497;48.936;9.270;2023-04-24T20:53:57;9.70;74.00
46752;DHT22;32497;48.936;9.270;2023-04-24T20:58:59;9.90;73.50
46752;DHT22;32497;48.936;9.270;2023-04-24T21:04:02;9.90;73.20
46752;DHT22;32497;48.936;9.270;2023-04-24T21:09:03;9.80;74.30
46752;DHT22;32497;48.936;9.270;2023-04-24T21:14:04;9.70;74.60
46752;DHT22;32497;48.936;9.270;2023-04-24T21:19:07;9.70;74.80
46752;DHT22;32497;48.936;9.270;2023-04-24T21:24:08;9.40;76.00
46752;DHT22;32497;48.936;9.270;2023-04-24T21:29:09;9.20;76.30
46752;DHT22;32497;48.936;9.270;2023-04-24T21:34:11;9.10;77.20
46752;DHT22;32497;48.936;9.270;2023-04-24T21:39:12;9.10;77.30
46752;DHT22;32497;48.936;9.270;2023-04-24T21:44:14;9.00;77.20
46752;DHT22;32497;48.936;9.270;2023-04-24T21:49:16;8.80;77.00
46752;DHT22;32497;48.936;9.270;2023-04-24T21:54:17;8.70;77.40
46752;DHT22;32497;48.936;9.270;2023-04-24T21:59:19;8.60;77.30
46752;DHT22;32497;48.936;9.270;2023-04-24T22:04:21;8.40;77.20
46752;DHT22;32497;48.936;9.270;2023-04-24T22:09:22;8.40;78.10
46752;DHT22;32497;48.936;9.270;2023-04-24T22:14:23;8.10;77.90
46752;DHT22;32497;48.936;9.270;2023-04-24T22:19:26;8.10;79.00
46752;DHT22;32497;48.936;9.270;2023-04-24T22:24:27;8.20;79.10
46752;DHT22;32497;48.936;9.270;2023-04-24T22:29:29;8.40;78.70
46752;DHT22;32497;48.936;9.270;2023-04-24T22:34:31;8.60;77.80
46752;DHT22;32497;48.936;9.270;2023-04-24T22:39:33;8.70;77.10
46752;DHT22;32497;48.936;9.270;2023-04-24T22:44:34;8.80;76.50
46752;DHT22;32497;48.936;9.270;2023-04-24T22:49:37;8.90;76.80
46752;DHT22;32497;48.936;9.270;2023-04-24T22:54:38;8.90;76.80
46752;DHT22;32497;48.936;9.270;2023-04-24T22:59:39;9.00;76.80
46752;DHT22;32497;48.936;9.270;2023-04-24T23:04:41;9.00;76.50
46752;DHT22;32497;48.936;9.270;2023-04-24T23:09:43;9.00;76.30
46752;DHT22;32497;48.936;9.270;2023-04-24T23:14:44;8.90;76.20
46752;DHT22;32497;48.936;9.270;2023-04-24T23:19:46;8.90;76.80
46752;DHT22;32497;48.936;9.270;2023-04-24T23:24:48;8.90;76.40
46752;DHT22;32497;48.936;9.270;2023-04-24T23:29:49;8.90;76.60
46752;DHT22;32497;48.936;9.270;2023-04-24T23:34:51;8.90;76.70
46752;DHT22;32497;48.936;9.270;2023-04-24T23:39:52;8.70;78.30
46752;DHT22;32497;48.936;9.270;2023-04-24T23:44:53;8.60;77.00
46752;DHT22;32497;48.936;9.270;2023-04-24T23:49:56;8.70;80.00
46752;DHT22;32497;48.936;9.270;2023-04-24T23:54:57;8.40;86.30
46752;DHT22;32497;48.936;9.270;2023-04-24T23:59:58;8.10;87.30
